aviador You're here:

KBTM Decoded Metar

BUTTE in MT, USA
Report Time2018-06-22 22:53:00
UTC Time2018-06-22 23:00:50
Flight Rules vfr VFR
Wind290° at 09 kt
W.Decomp.*RWY 30: 8.1 kt HW 3.9 kt LCW
RWY 33: 5.0 kt HW 7.5 kt LCW
W.Rank290° ranks 8
Current wind is above 290° avg. (7.7)
Visibility9999 m
Phenomena:N/A
Clouds:Scattered 095 Hf
Expected CloudBase > 8,000 ft AGL from Temp-Dew spread
CeilingNone
Temp22°C (ISA +18)
Dew Point02°C (27% RH)
AAT17.1°C
QNH1016 hPa
Density Alt7,602 ft
Elevation5,538 ft
Report Wrong Elevation
Raw Report
METAR KBTM 222253Z AUTO 29009KT 10SM SCT095 22/02 A3001 RMK AO2
SLP113 T02220017 TSNO=

Extra information for KBTM:More info

Metar Taf Metar & Taf Last 4 Metars F.Rules Stats Wind Profile Meteogram Temp Stats Airport Information Weather charts Add Link Nearby VenuesMetar ALERT Operation Metar Decoded Social comments

AIRNAV info for KBTM